Time;durP1;ratioP1;P1;durP2;ratioP2;P2;SDS_P1;SDS_P2;PMS_P1;PMS_P2;Temp;Humidity;BMP_temperature;BMP_pressure;BME280_temperature;BME280_humidity;BME280_pressure;Samples;Min_cycle;Max_cycle;Signal;HPM_P1;HPM_P2
2023/03/04 00:02:12;;;;;;;54.78;42.70;;;3.10;98.90;;;;;;4872038;29;20871;-67
2023/03/04 00:04:39;;;;;;;55.10;41.83;;;3.10;99.00;;;;;;4873313;29;20448;-69
2023/03/04 00:07:05;;;;;;;55.40;41.25;;;3.10;99.00;;;;;;4893708;23;20443;-69
2023/03/04 00:09:34;;;;;;;52.75;41.83;;;3.10;99.00;;;;;;4883162;29;20441;-71
2023/03/04 00:12:02;;;;;;;48.45;38.25;;;3.20;99.10;;;;;;4886813;29;20435;-68
2023/03/04 00:14:29;;;;;;;44.30;34.38;;;3.20;99.00;;;;;;4890851;29;20446;-69
2023/03/04 00:16:56;;;;;;;45.10;33.20;;;3.20;99.10;;;;;;4888564;29;20816;-71
2023/03/04 00:19:23;;;;;;;44.28;34.88;;;3.30;99.20;;;;;;4876733;29;20458;-69
2023/03/04 00:21:49;;;;;;;42.88;34.45;;;3.30;99.20;;;;;;4884191;29;20927;-71
2023/03/04 00:24:16;;;;;;;41.00;32.30;;;3.40;99.30;;;;;;4874999;29;20442;-70
2023/03/04 00:26:43;;;;;;;42.03;33.38;;;3.40;99.20;;;;;;4879923;29;20446;-69
2023/03/04 00:29:11;;;;;;;44.35;33.50;;;3.50;99.10;;;;;;4869714;29;20528;-69
2023/03/04 00:31:37;;;;;;;42.03;32.55;;;3.50;99.10;;;;;;4883072;29;20440;-68
2023/03/04 00:34:04;;;;;;;40.43;33.83;;;3.50;99.10;;;;;;4884583;29;20440;-69
2023/03/04 00:36:31;;;;;;;41.22;32.35;;;3.50;98.90;;;;;;4888716;29;20450;-71
2023/03/04 00:38:58;;;;;;;40.13;31.92;;;3.50;99.00;;;;;;4880185;29;20953;-68
2023/03/04 00:41:24;;;;;;;39.90;32.60;;;3.50;99.00;;;;;;4886521;29;20442;-68
2023/03/04 00:43:51;;;;;;;44.35;32.78;;;3.50;98.90;;;;;;4882933;29;20797;-71
2023/03/04 00:46:20;;;;;;;40.47;31.15;;;3.50;99.40;;;;;;4879227;29;20446;-70
2023/03/04 00:48:46;;;;;;;37.75;29.30;;;3.60;99.00;;;;;;4883301;29;20446;-71
2023/03/04 00:51:13;;;;;;;39.35;30.52;;;3.60;98.80;;;;;;4873330;29;20442;-69
2023/03/04 00:53:40;;;;;;;39.47;30.55;;;3.60;98.90;;;;;;4882351;29;20437;-69
2023/03/04 00:56:07;;;;;;;39.13;29.92;;;3.60;99.00;;;;;;4881788;29;20446;-70
2023/03/04 00:58:34;;;;;;;39.35;29.52;;;3.60;99.00;;;;;;4873275;29;20449;-70
2023/03/04 01:01:00;;;;;;;32.67;26.85;;;3.60;99.00;;;;;;4878898;29;20473;-71
2023/03/04 01:03:31;;;;;;;34.17;27.17;;;3.70;98.80;;;;;;4885069;29;20438;-70
2023/03/04 01:05:58;;;;;;;31.90;25.40;;;3.70;98.60;;;;;;4887359;29;20531;-71
2023/03/04 01:08:25;;;;;;;32.17;25.70;;;3.70;98.60;;;;;;4884454;29;20431;-70
2023/03/04 01:10:52;;;;;;;31.52;24.40;;;3.70;98.60;;;;;;4878692;29;20891;-69
2023/03/04 01:13:19;;;;;;;27.58;24.20;;;3.70;98.60;;;;;;4884122;29;20979;-68
2023/03/04 01:15:46;;;;;;;26.97;22.80;;;3.70;98.60;;;;;;4877562;29;20440;-69
2023/03/04 01:18:12;;;;;;;27.33;22.30;;;3.70;98.60;;;;;;4877818;29;20452;-70
2023/03/04 01:20:40;;;;;;;24.25;20.75;;;3.70;98.50;;;;;;4883014;29;20800;-69
2023/03/04 01:23:07;;;;;;;23.45;19.67;;;3.70;98.80;;;;;;4883253;29;20470;-71
2023/03/04 01:25:34;;;;;;;25.50;19.50;;;3.70;98.10;;;;;;4877719;29;20454;-68
2023/03/04 01:28:00;;;;;;;23.35;17.60;;;3.70;98.20;;;;;;4881135;29;20444;-69
2023/03/04 01:30:27;;;;;;;21.57;18.23;;;3.70;97.90;;;;;;4876611;29;20924;-71
2023/03/04 01:32:54;;;;;;;22.63;16.42;;;3.70;98.00;;;;;;4883251;29;20443;-67
2023/03/04 01:35:20;;;;;;;21.30;17.15;;;3.70;97.90;;;;;;4880976;29;20549;-69
2023/03/04 01:37:49;;;;;;;21.25;16.73;;;3.70;97.80;;;;;;4881727;29;20444;-70
2023/03/04 01:40:15;;;;;;;17.02;15.23;;;3.80;98.00;;;;;;4883685;29;20431;-68
2023/03/04 01:42:43;;;;;;;16.38;14.15;;;3.80;97.70;;;;;;4877401;29;20432;-69
2023/03/04 01:45:14;;;;;;;19.45;15.43;;;3.80;97.50;;;;;;4887313;29;20791;-69
2023/03/04 01:47:47;;;;;;;17.13;14.80;;;3.80;97.60;;;;;;4878219;29;20458;-67
2023/03/04 01:50:20;;;;;;;16.50;13.82;;;3.80;97.40;;;;;;4880262;29;20442;-70
2023/03/04 01:52:47;;;;;;;17.08;14.63;;;3.80;97.50;;;;;;4880094;29;20451;-69
2023/03/04 01:55:18;;;;;;;16.13;13.23;;;3.80;97.30;;;;;;4889977;29;20435;-69
2023/03/04 01:57:46;;;;;;;15.25;12.52;;;3.90;97.00;;;;;;4877058;29;21106;-70
2023/03/04 02:00:25;;;;;;;16.52;13.98;;;3.80;96.80;;;;;;4873986;29;20451;-69
2023/03/04 02:02:56;;;;;;;16.90;14.18;;;3.90;96.80;;;;;;4878636;29;20451;-69
2023/03/04 02:05:23;;;;;;;17.95;14.38;;;3.90;96.80;;;;;;4882439;29;20932;-69
2023/03/04 02:07:52;;;;;;;14.45;11.90;;;3.90;96.50;;;;;;4880201;29;20929;-70
2023/03/04 02:10:21;;;;;;;14.88;12.57;;;3.90;96.40;;;;;;4884157;29;20927;-70
2023/03/04 02:12:47;;;;;;;17.73;13.37;;;3.90;96.60;;;;;;4881491;29;20803;-68
2023/03/04 02:15:14;;;;;;;17.25;13.05;;;3.90;96.30;;;;;;4886674;29;20444;-69
2023/03/04 02:17:41;;;;;;;17.25;12.27;;;4.00;96.20;;;;;;4878451;29;20447;-70
2023/03/04 02:20:20;;;;;;;15.33;11.97;;;4.00;96.20;;;;;;4881827;29;20851;-69
2023/03/04 02:22:53;;;;;;;18.20;12.82;;;3.90;96.00;;;;;;4880812;29;20440;-69
2023/03/04 02:25:28;;;;;;;15.32;11.65;;;3.90;96.10;;;;;;4892901;29;20419;-69
2023/03/04 02:27:57;;;;;;;12.80;11.07;;;4.00;96.00;;;;;;4884330;29;20466;-69
2023/03/04 02:30:25;;;;;;;14.32;11.52;;;4.00;95.90;;;;;;4889104;29;20457;-70
2023/03/04 02:32:52;;;;;;;17.70;11.13;;;4.00;95.90;;;;;;4877291;29;20464;-70
2023/03/04 02:35:19;;;;;;;15.65;11.20;;;4.00;96.00;;;;;;4883155;29;20792;-69
2023/03/04 02:37:46;;;;;;;17.05;11.27;;;4.00;96.00;;;;;;4877520;29;20446;-69
2023/03/04 02:40:16;;;;;;;15.30;10.90;;;4.00;95.90;;;;;;4886129;29;20998;-70
2023/03/04 02:42:44;;;;;;;16.00;11.35;;;4.00;96.10;;;;;;4884057;29;20428;-70
2023/03/04 02:45:37;;;;;;;14.70;11.00;;;4.00;96.20;;;;;;4894746;29;20534;-71
2023/03/04 02:48:04;;;;;;;12.88;10.60;;;4.00;95.90;;;;;;4883038;29;20826;-69
2023/03/04 02:50:35;;;;;;;13.50;10.80;;;4.00;95.80;;;;;;4866164;29;20444;-69
2023/03/04 02:53:01;;;;;;;16.88;10.25;;;4.00;96.00;;;;;;4885623;29;20445;-71
2023/03/04 02:55:28;;;;;;;15.13;10.18;;;4.00;95.70;;;;;;4882966;29;20456;-68
2023/03/04 02:57:55;;;;;;;14.52;10.95;;;4.00;95.70;;;;;;4886163;29;20530;-71
2023/03/04 03:00:22;;;;;;;14.40;9.75;;;4.00;95.90;;;;;;4883173;29;20440;-70
2023/03/04 03:02:50;;;;;;;12.93;9.18;;;4.10;95.70;;;;;;4879514;29;20813;-68
2023/03/04 03:05:17;;;;;;;13.60;9.27;;;4.10;95.80;;;;;;4888654;29;20962;-71
2023/03/04 03:07:44;;;;;;;13.38;9.02;;;4.10;95.60;;;;;;4884391;29;20444;-69
2023/03/04 03:10:11;;;;;;;11.57;8.38;;;4.10;95.40;;;;;;4892816;29;20819;-69
2023/03/04 03:12:38;;;;;;;12.20;8.40;;;4.10;95.50;;;;;;4884348;29;20428;-69
2023/03/04 03:15:06;;;;;;;13.32;8.60;;;4.10;95.50;;;;;;4893961;29;20439;-69
2023/03/04 03:17:33;;;;;;;13.02;8.88;;;4.10;95.60;;;;;;4869103;29;20792;-69
2023/03/04 03:20:01;;;;;;;12.27;8.15;;;4.10;95.60;;;;;;4871153;29;20453;-69
2023/03/04 03:22:27;;;;;;;12.07;8.67;;;4.10;95.70;;;;;;4884858;29;20911;-70
2023/03/04 03:24:54;;;;;;;15.25;9.13;;;4.10;95.70;;;;;;4893331;29;20915;-69
2023/03/04 03:27:21;;;;;;;11.20;8.40;;;4.10;95.60;;;;;;4881172;29;20458;-70
2023/03/04 03:29:47;;;;;;;12.07;8.45;;;4.20;95.80;;;;;;4878623;29;20954;-68
2023/03/04 03:32:14;;;;;;;12.20;8.67;;;4.20;95.90;;;;;;4885587;29;20479;-69
2023/03/04 03:34:41;;;;;;;12.98;8.30;;;4.20;95.70;;;;;;4881336;29;20785;-69
2023/03/04 03:37:09;;;;;;;14.45;8.43;;;4.20;95.50;;;;;;4882357;29;20444;-70
2023/03/04 03:39:36;;;;;;;15.35;8.23;;;4.20;95.60;;;;;;4884993;29;20443;-70
2023/03/04 03:42:02;;;;;;;12.52;7.57;;;4.20;95.60;;;;;;4879622;29;20443;-71
2023/03/04 03:44:29;;;;;;;12.38;7.88;;;4.20;95.60;;;;;;4889763;29;20896;-68
2023/03/04 03:46:56;;;;;;;11.33;8.27;;;4.20;95.70;;;;;;4885376;29;20442;-69
2023/03/04 03:49:23;;;;;;;13.50;8.80;;;4.20;95.60;;;;;;4877347;29;20448;-67
2023/03/04 03:51:50;;;;;;;12.20;8.20;;;4.20;95.60;;;;;;4889298;29;20441;-70
2023/03/04 03:54:18;;;;;;;14.80;8.30;;;4.20;95.60;;;;;;4867819;29;20449;-69
2023/03/04 03:56:44;;;;;;;12.68;7.63;;;4.20;95.80;;;;;;4873471;29;20436;-69
2023/03/04 03:59:11;;;;;;;12.45;8.80;;;4.20;95.80;;;;;;4876833;29;20435;-69
2023/03/04 04:01:38;;;;;;;15.23;8.40;;;4.20;95.80;;;;;;4876855;29;20438;-67
2023/03/04 04:04:05;;;;;;;14.55;8.90;;;4.20;95.90;;;;;;4875271;29;20428;-70
2023/03/04 04:06:31;;;;;;;13.48;8.32;;;4.20;95.70;;;;;;4870291;29;20447;-69
2023/03/04 04:08:58;;;;;;;13.70;8.13;;;4.20;95.70;;;;;;4887506;29;20748;-68
2023/03/04 04:11:26;;;;;;;10.95;7.75;;;4.20;95.70;;;;;;4887257;29;20958;-68
2023/03/04 04:13:53;;;;;;;11.70;7.90;;;4.20;95.70;;;;;;4888804;29;20441;-69
2023/03/04 04:16:20;;;;;;;12.20;7.25;;;4.20;95.80;;;;;;4880211;29;20450;-68
2023/03/04 04:18:47;;;;;;;12.50;7.90;;;4.20;95.80;;;;;;4879372;29;20428;-68
2023/03/04 04:21:14;;;;;;;12.65;7.75;;;4.20;95.90;;;;;;4873619;29;20447;-69
2023/03/04 04:23:41;;;;;;;14.23;8.25;;;4.30;95.80;;;;;;4885983;29;20816;-70
2023/03/04 04:26:08;;;;;;;14.32;8.07;;;4.30;95.60;;;;;;4875361;29;20440;-70
2023/03/04 04:28:36;;;;;;;13.05;8.60;;;4.30;95.40;;;;;;4882163;29;20450;-69
2023/03/04 04:31:02;;;;;;;14.20;8.40;;;4.30;95.30;;;;;;4882440;29;20958;-69
2023/03/04 04:33:29;;;;;;;13.77;8.15;;;4.30;95.20;;;;;;4880503;29;20456;-68
2023/03/04 04:35:56;;;;;;;11.80;7.72;;;4.30;95.30;;;;;;4875727;29;20442;-68
2023/03/04 04:38:23;;;;;;;12.30;7.55;;;4.30;95.30;;;;;;4884786;29;20447;-70
2023/03/04 04:40:50;;;;;;;12.33;7.63;;;4.30;95.40;;;;;;4878023;29;20678;-68
2023/03/04 04:43:16;;;;;;;14.43;7.68;;;4.40;95.60;;;;;;4885251;29;20430;-69
2023/03/04 04:45:45;;;;;;;12.93;7.53;;;4.40;95.50;;;;;;4880969;29;20824;-69
2023/03/04 04:48:12;;;;;;;11.23;7.70;;;4.40;95.60;;;;;;4882898;29;20468;-68
2023/03/04 04:50:39;;;;;;;13.75;8.23;;;4.40;95.30;;;;;;4882572;29;20818;-69
2023/03/04 04:53:05;;;;;;;15.30;8.23;;;4.40;95.10;;;;;;4874214;29;20444;-68
2023/03/04 04:55:34;;;;;;;17.60;9.88;;;4.40;94.90;;;;;;4880350;29;20744;-71
2023/03/04 04:58:00;;;;;;;18.00;10.52;;;4.40;94.90;;;;;;4881885;29;20438;-68
2023/03/04 05:00:27;;;;;;;20.85;12.20;;;4.40;94.90;;;;;;4882076;29;20455;-69
2023/03/04 05:02:55;;;;;;;19.53;13.07;;;4.40;94.60;;;;;;4881563;29;20449;-70
2023/03/04 05:05:22;;;;;;;21.23;14.75;;;4.40;94.70;;;;;;4879520;29;20438;-68
2023/03/04 05:07:48;;;;;;;24.55;17.80;;;4.40;94.60;;;;;;4879049;29;20446;-70
2023/03/04 05:10:15;;;;;;;24.23;18.02;;;4.40;94.60;;;;;;4882401;29;20449;-67
2023/03/04 05:12:44;;;;;;;25.33;17.73;;;4.50;94.70;;;;;;4884468;29;20450;-68
2023/03/04 05:15:11;;;;;;;25.35;17.65;;;4.50;94.50;;;;;;4882342;29;21082;-69
2023/03/04 05:17:38;;;;;;;28.00;20.05;;;4.50;94.30;;;;;;4882194;29;20489;-70
2023/03/04 05:20:07;;;;;;;26.23;18.98;;;4.50;94.50;;;;;;4889792;29;20429;-68
2023/03/04 05:22:34;;;;;;;25.80;19.75;;;4.50;94.40;;;;;;4877926;29;20448;-69
2023/03/04 05:25:01;;;;;;;30.90;20.58;;;4.50;94.40;;;;;;4881241;29;20441;-69
2023/03/04 05:27:27;;;;;;;27.17;20.65;;;4.50;94.20;;;;;;4873375;29;20792;-70
2023/03/04 05:29:54;;;;;;;24.85;19.30;;;4.50;94.00;;;;;;4879689;29;20440;-70
2023/03/04 05:32:21;;;;;;;25.45;18.60;;;4.50;93.90;;;;;;4873609;29;20452;-68
2023/03/04 05:34:48;;;;;;;24.50;18.07;;;4.50;94.20;;;;;;4882050;29;20524;-70
2023/03/04 05:37:16;;;;;;;22.48;16.98;;;4.50;94.30;;;;;;4881987;29;20456;-70
2023/03/04 05:39:42;;;;;;;22.50;14.82;;;4.50;94.20;;;;;;4882588;29;20428;-70
2023/03/04 05:42:09;;;;;;;18.95;13.80;;;4.50;94.10;;;;;;4879977;29;20943;-68
2023/03/04 05:44:36;;;;;;;17.20;12.73;;;4.50;94.20;;;;;;4881666;29;20452;-70
2023/03/04 05:47:02;;;;;;;17.77;13.30;;;4.50;94.20;;;;;;4880866;29;20801;-70
2023/03/04 05:49:29;;;;;;;17.08;11.48;;;4.50;94.20;;;;;;4879575;29;20449;-70
2023/03/04 05:51:56;;;;;;;16.10;12.38;;;4.50;94.00;;;;;;4872667;29;20451;-68
2023/03/04 05:54:24;;;;;;;15.57;9.90;;;4.50;94.30;;;;;;4885068;29;20454;-71
2023/03/04 05:56:51;;;;;;;14.07;8.43;;;4.50;94.20;;;;;;4874816;29;20939;-71
2023/03/04 05:59:19;;;;;;;14.45;8.70;;;4.50;94.10;;;;;;4883869;29;20459;-69
2023/03/04 06:01:46;;;;;;;14.60;8.00;;;4.50;94.10;;;;;;4875682;29;20447;-69
2023/03/04 06:04:13;;;;;;;12.23;7.82;;;4.50;94.00;;;;;;4875819;29;20841;-71
2023/03/04 06:06:39;;;;;;;16.70;7.43;;;4.50;94.10;;;;;;4878989;29;20550;-70
2023/03/04 06:09:06;;;;;;;11.90;7.40;;;4.50;94.00;;;;;;4901131;23;20458;-79
2023/03/04 06:11:35;;;;;;;12.70;7.75;;;4.50;94.10;;;;;;4890050;29;20447;-79
2023/03/04 06:14:01;;;;;;;12.20;7.95;;;4.50;94.10;;;;;;4877380;29;20757;-79
2023/03/04 06:16:28;;;;;;;15.10;8.18;;;4.50;94.20;;;;;;4881361;29;20443;-79
2023/03/04 06:18:55;;;;;;;9.55;6.55;;;4.50;94.30;;;;;;4892266;29;20438;-79
2023/03/04 06:21:22;;;;;;;12.50;7.35;;;4.50;94.80;;;;;;4891267;29;20472;-78
2023/03/04 06:23:49;;;;;;;11.10;6.10;;;4.60;94.20;;;;;;4895007;29;20589;-79
2023/03/04 06:26:16;;;;;;;9.93;6.30;;;4.60;94.40;;;;;;4883263;29;20492;-80
2023/03/04 06:28:45;;;;;;;12.32;6.40;;;4.60;94.40;;;;;;4891171;29;20464;-80
2023/03/04 06:31:12;;;;;;;9.73;5.63;;;4.60;94.40;;;;;;4904023;29;20559;-78
2023/03/04 06:33:38;;;;;;;8.05;4.55;;;4.70;94.50;;;;;;4892771;29;20550;-78
2023/03/04 06:36:06;;;;;;;8.15;4.97;;;4.60;94.30;;;;;;4886139;29;20462;-78
2023/03/04 06:38:33;;;;;;;11.80;5.93;;;4.70;94.60;;;;;;4887066;29;20460;-80
2023/03/04 06:41:07;;;;;;;8.93;4.70;;;4.70;94.30;;;;;;4880322;29;20434;-78
2023/03/04 06:43:35;;;;;;;11.45;5.10;;;4.70;94.30;;;;;;4899680;29;20437;-78
2023/03/04 06:46:03;;;;;;;9.30;4.40;;;4.70;94.60;;;;;;4898085;29;20438;-79
2023/03/04 06:48:30;;;;;;;6.85;5.10;;;4.70;94.40;;;;;;4891660;29;20454;-78
2023/03/04 06:50:57;;;;;;;9.32;5.35;;;4.70;94.50;;;;;;4899305;29;20500;-78
2023/03/04 06:53:24;;;;;;;10.07;6.15;;;4.70;94.70;;;;;;4882578;29;20485;-78
2023/03/04 06:55:50;;;;;;;10.93;6.80;;;4.70;94.10;;;;;;4896792;29;20458;-77
2023/03/04 06:58:17;;;;;;;10.70;6.35;;;4.70;94.20;;;;;;4897191;29;20537;-79
2023/03/04 07:00:44;;;;;;;11.48;5.38;;;4.70;94.20;;;;;;4893767;29;20529;-79
2023/03/04 07:03:13;;;;;;;10.13;5.32;;;4.80;94.20;;;;;;4899209;29;20455;-79
2023/03/04 07:05:40;;;;;;;9.60;5.07;;;4.80;94.30;;;;;;4902120;29;20537;-78
2023/03/04 07:08:07;;;;;;;8.83;5.10;;;4.80;94.10;;;;;;4896857;29;20563;-79
2023/03/04 07:10:33;;;;;;;7.32;4.80;;;4.80;94.30;;;;;;4894682;29;20513;-78
2023/03/04 07:13:01;;;;;;;7.23;4.33;;;4.80;94.40;;;;;;4892038;29;20446;-79
2023/03/04 07:15:28;;;;;;;6.85;3.90;;;4.80;94.70;;;;;;4889817;29;20474;-79
2023/03/04 07:17:55;;;;;;;8.93;5.00;;;4.80;94.70;;;;;;4887266;29;20521;-78
2023/03/04 07:20:23;;;;;;;9.20;4.28;;;4.80;94.70;;;;;;4893380;29;20485;-79
2023/03/04 07:22:50;;;;;;;7.90;4.10;;;4.80;94.90;;;;;;4899094;29;20510;-79
2023/03/04 07:25:17;;;;;;;7.00;3.83;;;4.80;94.70;;;;;;4906510;29;20498;-78
2023/03/04 07:27:44;;;;;;;9.07;3.90;;;4.80;94.80;;;;;;4897146;29;20444;-79
2023/03/04 07:30:12;;;;;;;7.32;4.00;;;4.80;94.80;;;;;;4893668;29;20476;-79
2023/03/04 07:32:39;;;;;;;8.30;4.70;;;4.90;94.80;;;;;;4904829;29;20812;-79
2023/03/04 07:35:07;;;;;;;12.05;5.03;;;4.90;94.30;;;;;;4898185;29;20529;-79
2023/03/04 07:37:36;;;;;;;8.52;4.47;;;4.80;94.60;;;;;;4900906;29;20435;-80
2023/03/04 07:40:06;;;;;;;6.72;4.18;;;4.90;95.10;;;;;;4901961;29;20442;-81
2023/03/04 07:42:34;;;;;;;10.82;5.55;;;4.90;94.70;;;;;;4900702;29;20451;-80
2023/03/04 07:45:01;;;;;;;9.00;4.80;;;4.90;94.10;;;;;;4907577;29;20437;-81
2023/03/04 07:47:28;;;;;;;8.93;4.68;;;5.00;94.10;;;;;;4898329;29;20495;-78
2023/03/04 07:49:56;;;;;;;10.63;5.23;;;5.00;94.10;;;;;;4900966;29;20517;-80
2023/03/04 07:52:23;;;;;;;9.60;4.60;;;5.00;93.80;;;;;;4896937;29;20510;-79
2023/03/04 07:54:51;;;;;;;7.90;4.57;;;5.00;94.00;;;;;;4895921;29;20443;-78
2023/03/04 07:57:18;;;;;;;8.25;4.40;;;5.10;93.90;;;;;;4895252;29;20505;-80
2023/03/04 07:59:45;;;;;;;7.30;4.30;;;5.10;93.70;;;;;;4896148;29;20527;-81
2023/03/04 08:02:12;;;;;;;8.27;4.00;;;5.10;93.70;;;;;;4894243;29;20470;-78
2023/03/04 08:04:39;;;;;;;9.45;4.97;;;5.10;93.30;;;;;;4879737;29;20923;-82
2023/03/04 08:07:07;;;;;;;8.50;4.30;;;5.10;93.40;;;;;;4889077;29;20966;-79
2023/03/04 08:09:34;;;;;;;8.48;4.35;;;5.20;93.00;;;;;;4883412;29;20452;-79
2023/03/04 08:12:04;;;;;;;8.07;4.20;;;5.20;92.80;;;;;;4892931;29;20492;-79
2023/03/04 08:14:32;;;;;;;8.13;4.18;;;5.20;92.50;;;;;;4897124;29;20442;-79
2023/03/04 08:16:59;;;;;;;7.40;3.80;;;5.30;92.80;;;;;;4890573;29;20454;-79
2023/03/04 08:19:26;;;;;;;9.07;4.05;;;5.30;93.40;;;;;;4883373;29;20486;-79
2023/03/04 08:21:54;;;;;;;8.77;3.78;;;5.30;92.80;;;;;;4897405;29;20453;-78
2023/03/04 08:24:21;;;;;;;7.80;3.30;;;5.30;92.40;;;;;;4889752;29;20472;-78
2023/03/04 08:26:49;;;;;;;6.78;3.60;;;5.30;92.50;;;;;;4887339;29;20451;-78
2023/03/04 08:29:20;;;;;;;7.25;3.70;;;5.40;92.80;;;;;;4894341;29;20509;-79
2023/03/04 08:31:47;;;;;;;7.25;4.35;;;5.40;93.00;;;;;;4890455;29;20625;-79
2023/03/04 08:34:15;;;;;;;7.75;3.63;;;5.40;92.50;;;;;;4893163;29;20497;-79
2023/03/04 08:36:42;;;;;;;8.32;3.42;;;5.40;92.80;;;;;;4895600;29;20835;-80
2023/03/04 08:39:11;;;;;;;8.15;3.38;;;5.40;92.80;;;;;;4901852;29;20452;-78
2023/03/04 08:41:38;;;;;;;9.73;3.40;;;5.50;93.00;;;;;;4900415;29;20834;-79
2023/03/04 08:44:07;;;;;;;7.03;3.70;;;5.50;93.00;;;;;;4891435;29;20423;-79
2023/03/04 08:46:35;;;;;;;9.45;4.00;;;5.60;92.90;;;;;;4904522;29;20435;-79
2023/03/04 08:49:02;;;;;;;6.32;3.45;;;5.60;92.80;;;;;;4894431;29;20449;-80
2023/03/04 08:51:29;;;;;;;7.93;3.60;;;5.60;92.50;;;;;;4909039;29;20451;-79
2023/03/04 08:53:56;;;;;;;7.25;3.38;;;5.60;92.60;;;;;;4904760;29;20525;-79
2023/03/04 08:56:23;;;;;;;5.80;3.00;;;5.70;92.90;;;;;;4905281;29;20451;-80
2023/03/04 08:58:49;;;;;;;8.45;3.40;;;5.70;92.90;;;;;;4879516;29;20432;-79
2023/03/04 09:01:16;;;;;;;8.23;3.53;;;5.70;93.20;;;;;;4892985;29;20882;-79
2023/03/04 09:03:45;;;;;;;6.93;3.20;;;5.70;93.20;;;;;;4901416;29;20940;-79
2023/03/04 09:06:15;;;;;;;6.00;3.10;;;5.70;93.30;;;;;;4899020;29;20530;-81
2023/03/04 09:08:41;;;;;;;5.88;3.35;;;5.80;93.40;;;;;;4889330;29;20671;-79
2023/03/04 09:11:08;;;;;;;5.60;3.20;;;5.90;93.40;;;;;;4912738;29;20439;-79
2023/03/04 09:13:36;;;;;;;7.82;3.10;;;6.00;93.20;;;;;;4903961;29;20789;-81
2023/03/04 09:16:08;;;;;;;6.53;3.28;;;6.10;92.90;;;;;;4904181;29;20441;-81
2023/03/04 09:18:35;;;;;;;5.57;3.40;;;6.20;92.90;;;;;;4890130;29;20447;-80
2023/03/04 09:21:03;;;;;;;5.95;2.85;;;6.20;92.20;;;;;;4888904;29;20947;-79
2023/03/04 09:23:30;;;;;;;7.27;3.20;;;6.30;92.60;;;;;;4902929;29;20857;-81
2023/03/04 09:25:57;;;;;;;6.07;3.42;;;6.40;92.20;;;;;;4879381;29;20807;-80
2023/03/04 09:28:24;;;;;;;6.82;3.60;;;6.50;91.80;;;;;;4877790;29;20595;-80
2023/03/04 09:30:51;;;;;;;7.37;3.90;;;6.60;92.00;;;;;;4899134;29;20602;-80
2023/03/04 09:33:18;;;;;;;7.18;3.10;;;6.80;91.50;;;;;;4885061;29;20448;-80
2023/03/04 09:35:47;;;;;;;6.67;3.20;;;7.00;91.40;;;;;;4883534;29;20747;-80
2023/03/04 09:38:15;;;;;;;3.88;2.20;;;7.00;91.10;;;;;;4894912;29;20517;-80
2023/03/04 09:40:45;;;;;;;3.80;2.30;;;6.90;91.00;;;;;;4901451;29;20550;-81
2023/03/04 09:43:19;;;;;;;5.30;2.30;;;6.80;91.70;;;;;;4883927;29;20448;-80
2023/03/04 09:45:50;;;;;;;9.38;2.60;;;7.00;91.40;;;;;;4883269;29;20487;-80
2023/03/04 09:48:21;;;;;;;5.00;2.28;;;6.90;91.00;;;;;;4883024;29;20450;-80
2023/03/04 09:51:24;;;;;;;4.22;2.70;;;6.80;90.90;;;;;;4884488;29;20530;-81
2023/03/04 09:54:06;;;;;;;6.30;2.40;;;6.80;91.40;;;;;;4886661;29;20451;-82
2023/03/04 09:56:35;;;;;;;8.50;3.10;;;7.00;91.50;;;;;;4887927;29;21069;-82
2023/03/04 09:59:10;;;;;;;4.63;2.67;;;7.00;90.90;;;;;;4882908;29;20433;-82
2023/03/04 10:01:42;;;;;;;6.03;2.90;;;7.10;90.40;;;;;;4879129;29;20456;-80
2023/03/04 10:04:27;;;;;;;5.20;2.40;;;7.10;90.70;;;;;;4884742;29;20527;-80
2023/03/04 10:09:58;;;;;;;7.05;2.85;;;6.90;90.60;;;;;;4883339;29;20426;-80
2023/03/04 10:12:36;;;;;;;5.00;3.03;;;6.80;90.40;;;;;;4883084;29;20540;-79
2023/03/04 10:15:07;;;;;;;6.07;2.65;;;6.80;91.10;;;;;;4878363;29;20604;-79
2023/03/04 10:17:37;;;;;;;6.55;3.22;;;6.80;91.30;;;;;;4881425;29;20480;-81
2023/03/04 10:20:12;;;;;;;7.60;3.00;;;7.00;91.40;;;;;;4885541;29;20556;-81
2023/03/04 10:22:43;;;;;;;4.82;3.00;;;7.10;91.10;;;;;;4886769;29;20488;-81
2023/03/04 10:25:20;;;;;;;5.88;3.35;;;7.30;90.20;;;;;;4891780;29;20423;-80
2023/03/04 10:27:52;;;;;;;5.43;3.10;;;7.40;89.50;;;;;;4895698;29;20601;-81
2023/03/04 10:30:30;;;;;;;5.90;2.50;;;7.40;87.60;;;;;;4882270;29;20438;-80
2023/03/04 10:32:58;;;;;;;8.15;2.70;;;7.40;87.70;;;;;;4891409;29;20436;-81
2023/03/04 10:35:33;;;;;;;5.35;2.60;;;7.20;90.20;;;;;;4887161;29;20966;-81
2023/03/04 10:38:03;;;;;;;4.82;2.50;;;6.90;92.70;;;;;;4879841;29;20861;-81
2023/03/04 10:40:38;;;;;;;5.32;2.75;;;6.80;95.00;;;;;;4885038;29;20427;-81
2023/03/04 10:43:07;;;;;;;5.80;2.90;;;6.80;95.60;;;;;;4881825;29;20424;-80
2023/03/04 10:45:39;;;;;;;4.00;2.55;;;6.90;95.90;;;;;;4885482;29;20847;-81
2023/03/04 10:48:07;;;;;;;4.20;2.40;;;7.20;95.20;;;;;;4891861;29;20473;-82
2023/03/04 10:50:34;;;;;;;3.80;2.30;;;7.40;94.10;;;;;;4893550;29;20507;-81
2023/03/04 10:53:01;;;;;;;4.10;2.30;;;7.50;94.20;;;;;;4888474;29;20500;-80
2023/03/04 10:55:29;;;;;;;6.90;2.50;;;7.60;91.50;;;;;;4887259;29;20519;-80
2023/03/04 10:58:03;;;;;;;5.45;2.70;;;7.80;91.70;;;;;;4883283;29;20482;-78
2023/03/04 11:00:32;;;;;;;6.60;2.42;;;7.80;90.00;;;;;;4888160;29;20549;-78
2023/03/04 11:03:22;;;;;;;5.70;2.40;;;7.80;90.70;;;;;;4888150;29;20477;-78
2023/03/04 11:05:50;;;;;;;4.13;2.60;;;7.90;90.80;;;;;;4886410;29;20466;-78
2023/03/04 11:08:19;;;;;;;8.27;2.80;;;7.90;90.10;;;;;;4886490;29;20776;-77
2023/03/04 11:10:46;;;;;;;6.15;3.00;;;7.70;90.50;;;;;;4893890;29;20535;-77
2023/03/04 11:13:18;;;;;;;6.68;3.05;;;7.50;92.60;;;;;;4888532;29;20467;-77
2023/03/04 11:15:51;;;;;;;6.30;3.00;;;7.10;95.20;;;;;;4883638;29;20443;-77
2023/03/04 11:18:22;;;;;;;4.80;2.90;;;6.90;96.50;;;;;;4889511;29;20487;-77
2023/03/04 11:20:51;;;;;;;6.18;3.13;;;7.00;96.40;;;;;;4890264;29;20807;-78
2023/03/04 11:23:23;;;;;;;3.95;2.80;;;7.30;96.40;;;;;;4887496;29;20450;-79
2023/03/04 11:25:55;;;;;;;5.78;2.80;;;7.70;93.50;;;;;;4896596;29;20419;-77
2023/03/04 11:28:28;;;;;;;6.20;3.27;;;7.90;92.60;;;;;;4893856;29;20550;-76
2023/03/04 11:30:58;;;;;;;4.50;2.97;;;8.20;92.10;;;;;;4911477;29;20464;-77
2023/03/04 11:33:33;;;;;;;3.60;2.40;;;8.60;90.70;;;;;;4905313;29;20451;-77
2023/03/04 11:36:12;;;;;;;4.82;2.80;;;8.70;85.90;;;;;;4898806;29;20436;-77
2023/03/04 11:38:44;;;;;;;5.60;2.73;;;8.60;84.30;;;;;;4908191;29;20496;-77
2023/03/04 11:41:15;;;;;;;4.47;2.85;;;8.40;86.50;;;;;;4899151;29;20450;-77
2023/03/04 11:43:46;;;;;;;4.97;2.57;;;8.20;86.80;;;;;;4885098;29;20527;-77
2023/03/04 11:46:57;;;;;;;4.03;2.40;;;8.10;86.90;;;;;;4887363;29;20761;-77
2023/03/04 11:49:50;;;;;;;4.72;2.42;;;8.10;88.60;;;;;;4889313;29;21017;-78
2023/03/04 11:52:28;;;;;;;3.25;2.60;;;8.10;88.80;;;;;;4899850;29;20516;-77
2023/03/04 11:55:06;;;;;;;3.30;2.80;;;8.00;87.20;;;;;;4898680;29;20496;-77
2023/03/04 11:57:40;;;;;;;5.32;3.30;;;7.90;87.80;;;;;;4894077;29;20487;-78
2023/03/04 12:00:32;;;;;;;4.22;2.60;;;7.70;87.80;;;;;;4891804;29;20552;-77
2023/03/04 12:03:27;;;;;;;5.38;2.80;;;7.60;89.60;;;;;;4888868;29;20553;-76
2023/03/04 12:06:02;;;;;;;3.60;2.20;;;7.60;89.60;;;;;;4890541;29;20541;-77
2023/03/04 12:08:38;;;;;;;3.20;2.30;;;7.50;90.40;;;;;;4911591;23;20450;-68
2023/03/04 12:11:12;;;;;;;4.18;2.20;;;7.40;90.80;;;;;;4883467;29;20486;-69
2023/03/04 12:14:02;;;;;;;5.03;2.65;;;7.40;91.30;;;;;;4883305;29;20607;-69
2023/03/04 12:16:56;;;;;;;5.03;2.60;;;7.40;90.70;;;;;;4884281;29;20447;-69
2023/03/04 12:19:35;;;;;;;4.40;2.27;;;7.40;90.60;;;;;;4887926;29;20479;-69
2023/03/04 12:22:17;;;;;;;4.45;2.50;;;7.40;90.50;;;;;;4886287;29;20512;-69
2023/03/04 12:25:16;;;;;;;3.53;2.20;;;7.50;92.00;;;;;;4883385;29;20453;-67
2023/03/04 12:27:49;;;;;;;5.63;2.25;;;7.70;91.20;;;;;;4876236;29;20463;-69
2023/03/04 12:30:38;;;;;;;4.05;2.40;;;8.00;89.60;;;;;;4887241;29;20453;-69
2023/03/04 12:33:17;;;;;;;3.70;2.30;;;8.40;86.90;;;;;;4886600;29;20436;-68
2023/03/04 12:35:49;;;;;;;4.57;2.30;;;8.70;82.20;;;;;;4887323;29;20428;-69
2023/03/04 12:38:35;;;;;;;3.60;2.00;;;8.70;83.60;;;;;;4886132;29;20527;-68
2023/03/04 12:41:18;;;;;;;5.80;2.35;;;8.80;80.20;;;;;;4885249;29;20472;-68
2023/03/04 12:43:53;;;;;;;4.65;2.00;;;8.70;81.50;;;;;;4883624;29;20432;-67
2023/03/04 12:46:33;;;;;;;4.30;2.08;;;8.60;80.70;;;;;;4881655;29;20490;-67
2023/03/04 12:49:17;;;;;;;3.90;1.70;;;8.60;81.30;;;;;;4885222;29;20452;-69
2023/03/04 12:51:49;;;;;;;4.40;2.35;;;8.60;81.00;;;;;;4884700;29;20439;-67
2023/03/04 12:54:25;;;;;;;4.83;2.30;;;8.60;82.10;;;;;;4883702;29;20431;-67
2023/03/04 12:56:56;;;;;;;3.15;2.15;;;8.50;81.10;;;;;;4882575;29;20444;-68
2023/03/04 12:59:26;;;;;;;2.10;1.90;;;8.50;82.70;;;;;;4883482;29;20902;-67
2023/03/04 13:02:01;;;;;;;3.78;1.98;;;8.40;82.50;;;;;;4884880;29;20433;-68
2023/03/04 13:04:37;;;;;;;4.07;2.20;;;8.40;82.90;;;;;;4883714;29;20430;-68